createdAt,value
2022-09-22T00:00:35.832Z,60.29
2022-09-22T00:01:35.880Z,60.32
2022-09-22T00:02:35.750Z,60.29
2022-09-22T00:03:35.741Z,60.29
2022-09-22T00:04:35.750Z,60.29
2022-09-22T00:05:35.718Z,60.32
2022-09-22T00:06:35.708Z,60.29
2022-09-22T00:07:35.700Z,60.29
2022-09-22T00:08:35.687Z,60.29
2022-09-22T00:09:35.704Z,60.32
2022-09-22T00:10:35.687Z,60.29
2022-09-22T00:11:35.655Z,60.32
2022-09-22T00:12:35.641Z,60.29
2022-09-22T00:13:35.632Z,60.29
2022-09-22T00:14:35.622Z,60.32
2022-09-22T00:15:35.657Z,60.32
2022-09-22T00:16:35.681Z,60.42
2022-09-22T00:17:35.614Z,60.32
2022-09-22T00:18:35.573Z,60.39
2022-09-22T00:19:35.567Z,60.42
2022-09-22T00:20:35.564Z,60.39
2022-09-22T00:21:35.569Z,60.39
2022-09-22T00:22:35.530Z,60.42
2022-09-22T00:23:35.525Z,60.42
2022-09-22T00:24:35.512Z,60.42
2022-09-22T00:25:35.498Z,60.42
2022-09-22T00:26:35.514Z,60.42
2022-09-22T00:27:35.475Z,60.39
2022-09-22T00:28:35.460Z,60.39
2022-09-22T00:29:35.453Z,60.42
2022-09-22T00:30:35.438Z,60.39
2022-09-22T00:31:35.535Z,60.42
2022-09-22T00:32:35.416Z,60.39
2022-09-22T00:33:35.428Z,60.39
2022-09-22T00:34:35.395Z,60.42
2022-09-22T00:35:35.382Z,60.39
2022-09-22T00:36:35.396Z,60.39
2022-09-22T00:37:35.362Z,60.42
2022-09-22T00:38:35.348Z,60.39
2022-09-22T00:39:35.340Z,60.42
2022-09-22T00:40:35.391Z,60.42
2022-09-22T00:41:35.342Z,60.42
2022-09-22T00:42:35.307Z,60.42
2022-09-22T00:43:35.296Z,60.42
2022-09-22T00:44:35.288Z,60.42
2022-09-22T00:45:35.277Z,60.42
2022-09-22T00:46:35.349Z,60.42
2022-09-22T00:47:35.249Z,60.42
2022-09-22T00:48:35.239Z,60.39
2022-09-22T00:49:35.259Z,60.42
2022-09-22T00:50:35.216Z,60.42
2022-09-22T00:51:35.207Z,60.42
2022-09-22T00:52:35.222Z,60.42
2022-09-22T00:53:35.182Z,60.42
2022-09-22T00:54:35.177Z,60.42
2022-09-22T00:55:35.159Z,60.42
2022-09-22T00:56:35.152Z,60.42
2022-09-22T00:57:35.163Z,60.42
2022-09-22T00:58:35.128Z,60.42
2022-09-22T00:59:35.115Z,60.42
2022-09-22T01:00:35.186Z,60.42
2022-09-22T01:01:35.140Z,60.42
2022-09-22T01:02:35.115Z,60.42
2022-09-22T01:03:35.072Z,60.42
2022-09-22T01:04:35.058Z,60.42
2022-09-22T01:05:35.070Z,60.42
2022-09-22T01:06:35.036Z,60.42
2022-09-22T01:07:35.054Z,60.42
2022-09-22T01:08:35.015Z,60.42
2022-09-22T01:09:35.002Z,60.42
2022-09-22T01:10:34.992Z,60.42
2022-09-22T01:11:34.982Z,60.42
2022-09-22T01:12:34.996Z,60.42
2022-09-22T01:13:34.957Z,60.42
2022-09-22T01:14:34.948Z,60.42
2022-09-22T01:15:35.061Z,60.42
2022-09-22T01:16:34.926Z,60.42
2022-09-22T01:17:34.938Z,60.42
2022-09-22T01:18:34.902Z,60.42
2022-09-22T01:19:34.890Z,60.42
2022-09-22T01:20:34.881Z,60.42
2022-09-22T01:21:34.890Z,60.42
2022-09-22T01:22:34.883Z,60.42
2022-09-22T01:23:34.845Z,60.52
2022-09-22T01:24:34.836Z,60.42
2022-09-22T01:25:34.823Z,60.42
2022-09-22T01:26:34.812Z,60.42
2022-09-22T01:27:34.825Z,60.52
2022-09-22T01:28:34.789Z,60.42
2022-09-22T01:29:34.783Z,60.42
2022-09-22T01:30:34.769Z,60.42
2022-09-22T01:31:34.819Z,60.42
2022-09-22T01:32:34.773Z,60.52
2022-09-22T01:33:34.736Z,60.52
2022-09-22T01:34:34.725Z,60.42
2022-09-22T01:35:34.712Z,60.42
2022-09-22T01:36:34.704Z,60.42
2022-09-22T01:37:34.751Z,60.52
2022-09-22T01:38:34.681Z,60.52
2022-09-22T01:39:34.666Z,60.52
2022-09-22T01:40:34.731Z,60.52
2022-09-22T01:41:34.644Z,60.52
2022-09-22T01:42:34.634Z,60.52
2022-09-22T01:43:34.653Z,60.42
2022-09-22T01:44:34.612Z,60.52
2022-09-22T01:45:34.603Z,60.52
2022-09-22T01:46:34.622Z,60.52
2022-09-22T01:47:34.579Z,60.52
2022-09-22T01:48:34.607Z,60.52
2022-09-22T01:49:34.555Z,60.52
2022-09-22T01:50:34.551Z,60.52
2022-09-22T01:51:34.531Z,60.52
2022-09-22T01:52:34.523Z,60.52
2022-09-22T01:53:34.557Z,60.52
2022-09-22T01:54:34.498Z,60.52
2022-09-22T01:55:34.487Z,60.52
2022-09-22T01:56:34.480Z,60.52
2022-09-22T01:57:34.465Z,60.52
2022-09-22T01:58:34.480Z,60.52
2022-09-22T01:59:34.442Z,60.52
2022-09-22T02:00:34.431Z,60.52
2022-09-22T02:01:34.500Z,60.52
2022-09-22T02:02:34.567Z,60.52
2022-09-22T02:03:34.423Z,60.52
2022-09-22T02:04:34.388Z,60.52
2022-09-22T02:05:34.375Z,60.52
2022-09-22T02:06:34.366Z,60.52
2022-09-22T02:07:34.355Z,60.52
2022-09-22T02:08:34.366Z,60.42
2022-09-22T02:09:34.353Z,60.52
2022-09-22T02:10:34.323Z,60.52
2022-09-22T02:11:34.309Z,60.52
2022-09-22T02:12:34.297Z,60.52
2022-09-22T02:13:34.285Z,60.52
2022-09-22T02:14:34.301Z,60.52
2022-09-22T02:15:34.307Z,60.52
2022-09-22T02:16:34.254Z,60.52
2022-09-22T02:17:35.425Z,60.52
2022-09-22T02:18:34.234Z,60.52
2022-09-22T02:19:34.243Z,60.52
2022-09-22T02:20:34.205Z,60.52
2022-09-22T02:21:34.195Z,60.52
2022-09-22T02:22:34.184Z,60.52
2022-09-22T02:23:34.171Z,60.52
2022-09-22T02:24:34.194Z,60.52
2022-09-22T02:25:34.177Z,60.52
2022-09-22T02:26:34.140Z,60.52
2022-09-22T02:27:34.131Z,60.52
2022-09-22T02:28:34.119Z,60.52
2022-09-22T02:29:34.138Z,60.52
2022-09-22T02:30:34.093Z,60.52
2022-09-22T02:31:34.142Z,60.52
2022-09-22T02:32:34.074Z,60.52
2022-09-22T02:33:38.117Z,60.52
2022-09-22T02:34:34.075Z,60.52
2022-09-22T02:35:34.038Z,60.52
2022-09-22T02:36:34.026Z,60.52
2022-09-22T02:37:34.018Z,60.52
2022-09-22T02:38:34.003Z,60.52
2022-09-22T02:39:34.031Z,60.52
2022-09-22T02:40:34.026Z,60.52
2022-09-22T02:41:33.992Z,60.52
2022-09-22T02:42:33.961Z,60.52
2022-09-22T02:43:33.946Z,60.52
2022-09-22T02:44:33.937Z,60.52
2022-09-22T02:45:33.950Z,60.52
2022-09-22T02:46:34.029Z,60.52
2022-09-22T02:47:33.909Z,60.52
2022-09-22T02:48:33.894Z,60.42
2022-09-22T02:49:33.880Z,60.42
2022-09-22T02:50:33.896Z,60.42
2022-09-22T02:51:33.858Z,60.42
2022-09-22T02:52:33.848Z,60.42
2022-09-22T02:53:33.836Z,60.42
2022-09-22T02:54:33.827Z,60.42
2022-09-22T02:55:33.839Z,60.42
2022-09-22T02:56:33.817Z,60.42
2022-09-22T02:57:33.815Z,60.42
2022-09-22T02:58:33.798Z,60.42
2022-09-22T02:59:33.802Z,60.42
2022-09-22T03:00:33.797Z,60.42
2022-09-22T03:01:33.789Z,60.42
2022-09-22T03:02:33.741Z,60.42
2022-09-22T03:03:33.769Z,60.42
2022-09-22T03:04:33.790Z,60.42
2022-09-22T03:05:33.729Z,60.42
2022-09-22T03:06:33.693Z,60.42
2022-09-22T03:07:33.679Z,60.42
2022-09-22T03:08:33.670Z,60.42
2022-09-22T03:09:33.657Z,60.42
2022-09-22T03:10:33.674Z,60.42
2022-09-22T03:11:33.638Z,60.42
2022-09-22T03:12:33.625Z,60.42
2022-09-22T03:13:33.636Z,60.42
2022-09-22T03:14:33.627Z,60.42
2022-09-22T03:15:33.633Z,60.42
2022-09-22T03:16:33.605Z,60.42
2022-09-22T03:17:33.566Z,60.42
2022-09-22T03:18:33.558Z,60.42
2022-09-22T03:19:33.544Z,60.42
2022-09-22T03:20:33.539Z,60.42
2022-09-22T03:21:33.549Z,60.42
2022-09-22T03:22:33.513Z,60.42
2022-09-22T03:23:33.502Z,60.42
2022-09-22T03:24:33.490Z,60.42
2022-09-22T03:25:33.476Z,60.42
2022-09-22T03:26:33.510Z,60.42
2022-09-22T03:27:33.455Z,60.42
2022-09-22T03:28:33.445Z,60.42
2022-09-22T03:29:33.454Z,60.42
2022-09-22T03:30:33.548Z,60.42
2022-09-22T03:31:33.409Z,60.42
2022-09-22T03:32:33.430Z,60.42
2022-09-22T03:33:33.386Z,60.42
2022-09-22T03:34:33.377Z,60.42
2022-09-22T03:35:33.364Z,60.42
2022-09-22T03:36:33.379Z,60.42
2022-09-22T03:37:33.342Z,60.42
2022-09-22T03:38:33.333Z,60.42
2022-09-22T03:39:33.321Z,60.42
2022-09-22T03:40:33.410Z,60.42
2022-09-22T03:41:33.302Z,60.42
2022-09-22T03:42:33.314Z,60.42
2022-09-22T03:43:33.275Z,60.42
2022-09-22T03:44:33.268Z,60.42
2022-09-22T03:45:33.277Z,60.42
2022-09-22T03:46:33.242Z,60.42
2022-09-22T03:47:33.254Z,60.42
2022-09-22T03:48:33.219Z,60.42
2022-09-22T03:49:33.230Z,60.42
2022-09-22T03:50:33.224Z,60.42
2022-09-22T03:51:33.187Z,60.42
2022-09-22T03:52:33.177Z,60.42
2022-09-22T03:53:33.163Z,60.42
2022-09-22T03:54:33.180Z,60.42
2022-09-22T03:55:33.140Z,60.42
2022-09-22T03:56:33.132Z,60.42
2022-09-22T03:57:33.155Z,60.42
2022-09-22T03:58:33.109Z,60.42
2022-09-22T03:59:33.096Z,60.42
2022-09-22T04:00:33.086Z,60.42
2022-09-22T04:01:33.128Z,60.42
2022-09-22T04:02:33.181Z,60.42
2022-09-22T04:03:33.073Z,60.42
2022-09-22T04:04:33.043Z,60.42
2022-09-22T04:05:33.049Z,60.42
2022-09-22T04:06:33.019Z,60.42
2022-09-22T04:07:33.006Z,60.42
2022-09-22T04:08:32.997Z,60.42
2022-09-22T04:09:33.010Z,60.42
2022-09-22T04:10:32.975Z,60.42
2022-09-22T04:11:32.960Z,60.42
2022-09-22T04:12:32.974Z,60.42
2022-09-22T04:13:32.940Z,60.42
2022-09-22T04:14:32.929Z,60.42
2022-09-22T04:15:32.920Z,60.42
2022-09-22T04:16:32.984Z,60.42
2022-09-22T04:17:32.943Z,60.42
2022-09-22T04:18:32.881Z,60.42
2022-09-22T04:19:32.871Z,60.42
2022-09-22T04:20:32.883Z,60.42
2022-09-22T04:21:32.849Z,60.42
2022-09-22T04:22:32.838Z,60.42
2022-09-22T04:23:32.828Z,60.42
2022-09-22T04:24:32.816Z,60.42
2022-09-22T04:25:32.834Z,60.42
2022-09-22T04:26:32.820Z,60.42
2022-09-22T04:27:32.787Z,60.42
2022-09-22T04:28:32.772Z,60.42
2022-09-22T04:29:32.761Z,60.42
2022-09-22T04:30:32.836Z,60.42
2022-09-22T04:31:32.763Z,60.42
2022-09-22T04:32:32.727Z,60.42
2022-09-22T04:33:32.741Z,60.42
2022-09-22T04:34:32.704Z,60.42
2022-09-22T04:35:32.695Z,60.42
2022-09-22T04:36:32.710Z,60.42
2022-09-22T04:37:32.696Z,60.42
2022-09-22T04:38:32.659Z,60.42
2022-09-22T04:39:32.651Z,60.42
2022-09-22T04:40:32.722Z,60.42
2022-09-22T04:41:32.627Z,60.42
2022-09-22T04:42:32.641Z,60.42
2022-09-22T04:43:32.603Z,60.42
2022-09-22T04:44:35.138Z,60.42
2022-09-22T04:45:37.364Z,60.42
2022-09-22T04:46:33.691Z,60.42
2022-09-22T04:47:32.585Z,60.42
2022-09-22T04:48:32.548Z,60.42
2022-09-22T04:49:32.567Z,60.42
2022-09-22T04:50:32.524Z,60.42
2022-09-22T04:51:32.537Z,60.42
2022-09-22T04:52:32.503Z,60.42
2022-09-22T04:53:32.514Z,60.42
2022-09-22T04:54:32.480Z,60.42
2022-09-22T04:55:32.474Z,60.42
2022-09-22T04:56:32.457Z,60.42
2022-09-22T04:57:32.446Z,60.42
2022-09-22T04:58:32.464Z,60.42
2022-09-22T04:59:32.427Z,60.42
2022-09-22T05:00:32.412Z,60.42
2022-09-22T05:01:32.522Z,60.42
2022-09-22T05:02:32.394Z,60.42
2022-09-22T05:03:32.446Z,60.42
2022-09-22T05:04:32.371Z,60.42
2022-09-22T05:05:32.407Z,60.42
2022-09-22T05:06:32.349Z,60.42
2022-09-22T05:07:32.340Z,60.42
2022-09-22T05:08:32.325Z,60.42
2022-09-22T05:09:32.316Z,60.42
2022-09-22T05:10:32.328Z,60.42
2022-09-22T05:11:32.294Z,60.42
2022-09-22T05:12:32.283Z,60.42
2022-09-22T05:13:32.270Z,60.42
2022-09-22T05:14:32.258Z,60.42
2022-09-22T05:15:32.274Z,60.42
2022-09-22T05:16:32.457Z,60.42
2022-09-22T05:17:32.228Z,60.42
2022-09-22T05:18:32.229Z,60.42
2022-09-22T05:19:32.209Z,60.42
2022-09-22T05:20:32.219Z,60.42
2022-09-22T05:21:32.204Z,60.42
2022-09-22T05:22:36.376Z,60.42
2022-09-22T05:23:33.190Z,60.42
2022-09-22T05:24:32.148Z,60.42
2022-09-22T05:25:32.138Z,60.42
2022-09-22T05:26:32.126Z,60.42
2022-09-22T05:27:32.117Z,60.42
2022-09-22T05:28:32.106Z,60.42
2022-09-22T05:29:32.116Z,60.42
2022-09-22T05:30:32.081Z,60.42
2022-09-22T05:31:32.142Z,60.42
2022-09-22T05:32:32.058Z,60.42
2022-09-22T05:33:32.049Z,60.42
2022-09-22T05:34:32.073Z,60.42
2022-09-22T05:35:36.648Z,60.42
2022-09-22T05:36:33.011Z,60.42
2022-09-22T05:37:32.038Z,60.42
2022-09-22T05:38:31.992Z,60.42
2022-09-22T05:39:31.982Z,60.42
2022-09-22T05:40:32.058Z,60.42
2022-09-22T05:41:31.957Z,60.42
2022-09-22T05:42:31.947Z,60.42
2022-09-22T05:43:31.964Z,60.42
2022-09-22T05:44:31.923Z,60.42
2022-09-22T05:45:32.017Z,60.42
2022-09-22T05:46:31.904Z,60.42
2022-09-22T05:47:31.891Z,60.42
2022-09-22T05:48:31.905Z,60.42
2022-09-22T05:49:31.869Z,60.42
2022-09-22T05:50:31.858Z,60.42
2022-09-22T05:51:31.843Z,60.42
2022-09-22T05:52:31.833Z,60.42
2022-09-22T05:53:31.875Z,60.42
2022-09-22T05:54:31.810Z,60.42
2022-09-22T05:55:31.802Z,60.42
2022-09-22T05:56:31.787Z,60.42
2022-09-22T05:57:31.780Z,60.42
2022-09-22T05:58:31.802Z,60.42
2022-09-22T05:59:31.760Z,60.42
2022-09-22T06:00:31.746Z,60.42
2022-09-22T06:01:31.791Z,60.42
2022-09-22T06:02:31.781Z,60.32
2022-09-22T06:03:31.709Z,60.32
2022-09-22T06:04:31.725Z,60.32
2022-09-22T06:05:31.702Z,60.32
2022-09-22T06:06:31.675Z,60.32
2022-09-22T06:07:31.689Z,60.32
2022-09-22T06:08:31.671Z,60.32
2022-09-22T06:09:31.665Z,60.32
2022-09-22T06:10:31.635Z,60.32
2022-09-22T06:11:31.644Z,60.12
2022-09-22T06:12:31.633Z,60.02
2022-09-22T06:13:31.598Z,59.92
2022-09-22T06:14:31.610Z,59.92
2022-09-22T06:15:31.576Z,59.92
2022-09-22T06:16:31.640Z,59.82
2022-09-22T06:17:31.554Z,59.82
2022-09-22T06:18:31.539Z,59.82
2022-09-22T06:19:31.589Z,59.82
2022-09-22T06:20:31.519Z,59.82
2022-09-22T06:21:31.508Z,59.82
2022-09-22T06:22:31.497Z,59.92
2022-09-22T06:23:31.503Z,59.82
2022-09-22T06:24:31.495Z,59.82
2022-09-22T06:25:31.489Z,59.82
2022-09-22T06:26:31.472Z,59.82
2022-09-22T06:27:31.440Z,59.72
2022-09-22T06:28:31.430Z,59.62
2022-09-22T06:29:31.425Z,59.72
2022-09-22T06:30:31.403Z,59.72
2022-09-22T06:31:31.486Z,59.72
2022-09-22T06:32:31.386Z,59.72
2022-09-22T06:33:31.374Z,59.72
2022-09-22T06:34:31.362Z,59.72
2022-09-22T06:35:31.354Z,59.82
2022-09-22T06:36:31.364Z,59.82
2022-09-22T06:37:31.328Z,59.82
2022-09-22T06:38:31.337Z,59.92
2022-09-22T06:39:31.305Z,59.92
2022-09-22T06:40:31.309Z,59.92
2022-09-22T06:41:31.320Z,59.92
2022-09-22T06:42:31.299Z,59.92
2022-09-22T06:43:31.265Z,60.02
2022-09-22T06:44:31.250Z,60.02
2022-09-22T06:45:31.428Z,60.02
2022-09-22T06:46:31.252Z,60.02
2022-09-22T06:47:31.219Z,60.02
2022-09-22T06:48:31.228Z,60.02
2022-09-22T06:49:31.190Z,60.12
2022-09-22T06:50:31.281Z,60.12
2022-09-22T06:51:31.171Z,60.12
2022-09-22T06:52:31.166Z,60.02
2022-09-22T06:53:31.171Z,60.02
2022-09-22T06:54:31.134Z,60.22
2022-09-22T06:55:31.123Z,60.42
2022-09-22T06:56:33.668Z,60.42
2022-09-22T06:57:31.147Z,60.42
2022-09-22T06:58:42.384Z,60.42
2022-09-22T06:59:32.077Z,60.32
2022-09-22T07:00:31.237Z,60.32
2022-09-22T07:01:31.163Z,60.32
2022-09-22T07:02:31.070Z,60.22
2022-09-22T07:03:31.035Z,60.22
2022-09-22T07:04:31.027Z,60.32
2022-09-22T07:05:31.010Z,60.32
2022-09-22T07:06:30.999Z,60.32
2022-09-22T07:07:31.014Z,60.32
2022-09-22T07:08:31.011Z,60.42
2022-09-22T07:09:30.966Z,60.32
2022-09-22T07:10:30.958Z,60.32
2022-09-22T07:11:30.943Z,60.42
2022-09-22T07:12:30.931Z,60.42
2022-09-22T07:13:30.967Z,60.42
2022-09-22T07:14:30.915Z,60.32
2022-09-22T07:15:30.899Z,60.32
2022-09-22T07:16:30.933Z,60.32
2022-09-22T07:17:30.889Z,60.32
2022-09-22T07:18:30.899Z,60.32
2022-09-22T07:19:30.855Z,60.42
2022-09-22T07:20:30.842Z,60.52
2022-09-22T07:21:30.857Z,60.62
2022-09-22T07:22:30.821Z,60.62
2022-09-22T07:23:30.807Z,60.52
2022-09-22T07:24:30.829Z,60.52
2022-09-22T07:25:30.786Z,60.52
2022-09-22T07:26:30.807Z,60.42
2022-09-22T07:27:30.765Z,60.42
2022-09-22T07:28:30.753Z,60.42
2022-09-22T07:29:30.765Z,60.52
2022-09-22T07:30:30.754Z,60.42
2022-09-22T07:31:30.824Z,60.42
2022-09-22T07:32:30.734Z,60.42
2022-09-22T07:33:30.700Z,60.62
2022-09-22T07:34:30.685Z,60.80
2022-09-22T07:35:30.672Z,60.62
2022-09-22T07:36:30.664Z,60.62
2022-09-22T07:37:30.675Z,60.72
2022-09-22T07:38:30.639Z,60.72
2022-09-22T07:39:30.629Z,60.69
2022-09-22T07:40:30.716Z,60.80
2022-09-22T07:41:30.630Z,60.72
2022-09-22T07:42:30.595Z,60.93
2022-09-22T07:43:30.582Z,61.13
2022-09-22T07:44:30.584Z,61.13
2022-09-22T07:45:30.583Z,61.00
2022-09-22T07:46:30.640Z,61.00
2022-09-22T07:47:30.538Z,61.00
2022-09-22T07:48:30.567Z,61.00
2022-09-22T07:49:30.516Z,61.00
2022-09-22T07:50:30.541Z,60.89
2022-09-22T07:51:30.494Z,61.00
2022-09-22T07:52:30.487Z,60.89
2022-09-22T07:53:30.470Z,60.89
2022-09-22T07:54:30.491Z,61.00
2022-09-22T07:55:30.448Z,61.00
2022-09-22T07:56:30.437Z,60.89
2022-09-22T07:57:30.461Z,60.89
2022-09-22T07:58:30.417Z,60.80
2022-09-22T07:59:30.402Z,60.80
2022-09-22T08:00:30.443Z,60.80
2022-09-22T08:01:30.426Z,60.80
2022-09-22T08:02:30.370Z,60.89
2022-09-22T08:03:30.388Z,61.10
2022-09-22T08:04:30.349Z,61.10
2022-09-22T08:05:30.363Z,61.10
2022-09-22T08:06:30.354Z,61.10
2022-09-22T08:07:30.316Z,61.10
2022-09-22T08:08:30.309Z,61.19
2022-09-22T08:09:30.290Z,61.10
2022-09-22T08:10:30.304Z,61.10
2022-09-22T08:11:30.267Z,61.00
2022-09-22T08:12:30.260Z,61.00
2022-09-22T08:13:30.254Z,61.00
2022-09-22T08:14:30.238Z,61.00
2022-09-22T08:15:30.246Z,61.00
2022-09-22T08:16:30.320Z,60.89
2022-09-22T08:17:30.226Z,60.89
2022-09-22T08:18:30.199Z,61.00
2022-09-22T08:19:30.179Z,61.19
2022-09-22T08:20:30.170Z,61.19
2022-09-22T08:21:30.181Z,61.19
2022-09-22T08:22:30.171Z,61.19
2022-09-22T08:23:30.140Z,61.19
2022-09-22T08:24:30.124Z,61.19
2022-09-22T08:25:30.114Z,61.10
2022-09-22T08:26:30.104Z,61.10
2022-09-22T08:27:30.115Z,61.10
2022-09-22T08:28:30.091Z,61.10
2022-09-22T08:29:30.094Z,61.30
2022-09-22T08:30:30.057Z,61.30
2022-09-22T08:31:30.113Z,61.19
2022-09-22T08:32:30.034Z,61.30
2022-09-22T08:33:30.046Z,61.40
2022-09-22T08:34:30.037Z,61.40
2022-09-22T08:35:30.004Z,61.30
2022-09-22T08:36:29.993Z,61.30
2022-09-22T08:37:29.979Z,61.19
2022-09-22T08:38:29.967Z,61.19
2022-09-22T08:39:29.998Z,61.40
2022-09-22T08:40:30.002Z,61.40
2022-09-22T08:41:29.933Z,61.40
2022-09-22T08:42:29.920Z,61.40
2022-09-22T08:43:29.911Z,61.40
2022-09-22T08:44:29.897Z,61.40
2022-09-22T08:45:29.911Z,61.40
2022-09-22T08:46:29.924Z,61.40
2022-09-22T08:47:29.891Z,61.50
2022-09-22T08:48:29.853Z,61.60
2022-09-22T08:49:29.866Z,61.70
2022-09-22T08:50:29.947Z,61.80
2022-09-22T08:51:29.821Z,61.70
2022-09-22T08:52:29.809Z,61.70
2022-09-22T08:53:29.801Z,61.30
2022-09-22T08:54:29.787Z,59.39
2022-09-22T08:55:29.801Z,59.09
2022-09-22T08:56:29.763Z,59.39
2022-09-22T08:57:29.754Z,58.89
2022-09-22T08:58:29.784Z,58.49
2022-09-22T08:59:29.733Z,57.59
2022-09-22T09:00:29.783Z,57.68
2022-09-22T09:01:29.804Z,57.39
2022-09-22T09:02:29.783Z,57.28
2022-09-22T09:03:29.687Z,56.98
2022-09-22T09:04:29.704Z,56.88
2022-09-22T09:05:29.689Z,56.68
2022-09-22T09:06:29.654Z,56.88
2022-09-22T09:07:29.643Z,56.78
2022-09-22T09:08:29.630Z,56.38
2022-09-22T09:09:29.648Z,56.38
2022-09-22T09:10:29.702Z,56.51
2022-09-22T09:11:29.598Z,56.41
2022-09-22T09:12:29.608Z,56.51
2022-09-22T09:13:29.577Z,56.30
2022-09-22T09:14:29.562Z,56.01
2022-09-22T09:15:29.556Z,55.91
2022-09-22T09:16:30.939Z,56.01
2022-09-22T09:17:29.557Z,55.91
2022-09-22T09:18:29.517Z,55.91
2022-09-22T09:19:29.533Z,55.80
2022-09-22T09:20:29.495Z,55.71
2022-09-22T09:21:29.629Z,55.80
2022-09-22T09:22:29.472Z,55.71
2022-09-22T09:25:22.039Z,55.71
2022-09-22T09:25:30.449Z,55.00
2022-09-22T09:26:29.429Z,55.20
2022-09-22T09:27:29.420Z,55.20
2022-09-22T09:28:29.408Z,55.20
2022-09-22T09:29:29.398Z,54.90
2022-09-22T09:30:29.413Z,55.00
2022-09-22T09:31:29.459Z,54.70
2022-09-22T09:32:29.365Z,55.10
2022-09-22T09:33:29.355Z,55.30
2022-09-22T09:34:29.344Z,55.40
2022-09-22T09:35:29.336Z,55.51
2022-09-22T09:36:29.352Z,55.71
2022-09-22T09:37:29.360Z,55.71
2022-09-22T09:38:29.301Z,55.80
2022-09-22T09:39:29.291Z,56.01
2022-09-22T09:40:29.429Z,56.21
2022-09-22T09:41:29.267Z,56.30
2022-09-22T09:42:29.283Z,56.41
2022-09-22T09:43:29.247Z,56.21
2022-09-22T09:44:29.242Z,56.30
2022-09-22T09:45:29.227Z,56.21
2022-09-22T09:46:29.250Z,56.30
2022-09-22T09:47:29.245Z,56.30
2022-09-22T09:48:29.192Z,56.51
2022-09-22T09:49:29.183Z,56.51
2022-09-22T09:50:29.170Z,56.51
2022-09-22T09:51:29.162Z,56.51
2022-09-22T09:52:29.175Z,56.61
2022-09-22T09:53:29.162Z,56.61
2022-09-22T09:54:29.128Z,56.61
2022-09-22T09:55:29.117Z,56.01
2022-09-22T09:56:29.110Z,56.01
2022-09-22T09:57:29.123Z,56.01
2022-09-22T09:58:29.090Z,56.01
2022-09-22T09:59:29.098Z,56.10
2022-09-22T10:00:29.061Z,56.21
2022-09-22T10:01:29.084Z,56.30
2022-09-22T10:02:29.041Z,56.41
2022-09-22T10:03:29.061Z,56.30
2022-09-22T10:04:29.039Z,56.30
2022-09-22T10:05:29.006Z,56.41
2022-09-22T10:06:28.993Z,56.51
2022-09-22T10:07:28.984Z,56.61
2022-09-22T10:08:28.972Z,56.71
2022-09-22T10:09:29.012Z,56.71
2022-09-22T10:10:28.953Z,56.81
2022-09-22T10:11:28.940Z,56.91
2022-09-22T10:12:28.965Z,57.01
2022-09-22T10:13:28.916Z,57.01
2022-09-22T10:14:28.904Z,57.01
2022-09-22T10:15:28.943Z,57.01
2022-09-22T10:16:28.898Z,57.01
2022-09-22T10:17:28.869Z,57.18
2022-09-22T10:18:28.884Z,57.31
2022-09-22T10:19:28.849Z,57.41
2022-09-22T10:20:28.841Z,57.51
2022-09-22T10:21:28.864Z,57.59
2022-09-22T10:22:28.817Z,57.61
2022-09-22T10:23:28.804Z,57.68
2022-09-22T10:24:28.791Z,57.68
2022-09-22T10:25:28.805Z,57.71
2022-09-22T10:26:28.794Z,57.79
2022-09-22T10:27:28.759Z,57.81
2022-09-22T10:28:28.752Z,57.79
2022-09-22T10:29:28.761Z,57.79
2022-09-22T10:30:28.724Z,57.89
2022-09-22T10:31:28.777Z,57.89
2022-09-22T10:32:28.706Z,57.98
2022-09-22T10:33:28.693Z,57.98
2022-09-22T10:34:28.711Z,57.98
2022-09-22T10:35:28.696Z,58.09
2022-09-22T10:36:28.658Z,58.09
2022-09-22T10:37:28.650Z,58.09
2022-09-22T10:38:28.718Z,58.18
2022-09-22T10:39:28.629Z,58.18
2022-09-22T10:40:28.701Z,58.18
2022-09-22T10:41:28.629Z,58.18
2022-09-22T10:42:28.655Z,58.29
2022-09-22T10:43:28.583Z,58.39
2022-09-22T10:44:38.794Z,58.49
2022-09-22T10:45:29.583Z,58.39
2022-09-22T10:46:28.597Z,58.39
2022-09-22T10:47:28.563Z,58.39
2022-09-22T10:48:28.526Z,58.39
2022-09-22T10:49:28.517Z,58.39
2022-09-22T10:50:28.501Z,58.39
2022-09-22T10:51:28.495Z,58.39
2022-09-22T10:52:28.506Z,58.39
2022-09-22T10:53:28.474Z,58.39
2022-09-22T10:54:28.456Z,58.49
2022-09-22T10:55:28.461Z,58.49
2022-09-22T10:56:28.446Z,58.49
2022-09-22T10:57:28.472Z,58.59
2022-09-22T10:58:28.412Z,58.59
2022-09-22T10:59:28.404Z,58.69
2022-09-22T11:00:28.389Z,58.69
2022-09-22T11:01:28.474Z,58.69
2022-09-22T11:02:28.406Z,58.69
2022-09-22T11:03:28.361Z,58.69
2022-09-22T11:04:28.449Z,58.69
2022-09-22T11:05:28.339Z,58.79
2022-09-22T11:06:28.348Z,58.79
2022-09-22T11:07:28.314Z,58.79
2022-09-22T11:08:28.301Z,58.89
2022-09-22T11:09:28.307Z,58.89
2022-09-22T11:10:28.291Z,58.89
2022-09-22T11:11:28.300Z,58.89
2022-09-22T11:12:28.258Z,58.89
2022-09-22T11:13:28.298Z,58.89
2022-09-22T11:14:28.235Z,58.89
2022-09-22T11:15:28.272Z,58.79
2022-09-22T11:16:28.212Z,58.69
2022-09-22T11:17:28.204Z,58.69
2022-09-22T11:18:28.214Z,58.59
2022-09-22T11:19:28.207Z,58.59
2022-09-22T11:20:28.167Z,58.59
2022-09-22T11:21:28.159Z,58.69
2022-09-22T11:22:28.146Z,58.69
2022-09-22T11:23:28.139Z,58.59
2022-09-22T11:24:28.162Z,58.39
2022-09-22T11:25:28.116Z,58.39
2022-09-22T11:26:28.106Z,58.49
2022-09-22T11:27:28.091Z,58.49
2022-09-22T11:28:28.078Z,58.59
2022-09-22T11:29:28.094Z,58.59
2022-09-22T11:30:28.080Z,58.59
2022-09-22T11:31:28.049Z,58.59
2022-09-22T11:32:28.036Z,58.59
2022-09-22T11:33:28.025Z,58.59
2022-09-22T11:34:28.045Z,58.59
2022-09-22T11:35:28.002Z,58.69
2022-09-22T11:36:27.989Z,58.69
2022-09-22T11:37:28.020Z,58.69
2022-09-22T11:38:27.969Z,58.79
2022-09-22T11:39:27.981Z,58.79
2022-09-22T11:40:28.064Z,58.79
2022-09-22T11:41:27.937Z,58.89
2022-09-22T11:42:27.923Z,58.89
2022-09-22T11:43:27.913Z,58.89
2022-09-22T11:44:27.925Z,58.89
2022-09-22T11:45:27.950Z,58.89
2022-09-22T11:46:27.938Z,58.89
2022-09-22T11:47:27.869Z,58.89
2022-09-22T11:48:27.859Z,58.89
2022-09-22T11:49:27.846Z,58.99
2022-09-22T11:50:27.870Z,58.99
2022-09-22T11:51:27.822Z,58.99
2022-09-22T11:52:27.811Z,59.09
2022-09-22T11:53:27.801Z,58.99
2022-09-22T11:54:27.789Z,59.09
2022-09-22T11:55:27.777Z,59.09
2022-09-22T11:56:27.792Z,59.09
2022-09-22T11:57:27.759Z,59.09
2022-09-22T11:58:27.745Z,59.09
2022-09-22T11:59:27.734Z,59.09
2022-09-22T12:00:27.720Z,59.09
2022-09-22T12:01:27.764Z,59.19
2022-09-22T12:02:27.857Z,59.19
2022-09-22T12:03:27.824Z,59.19
2022-09-22T12:04:27.702Z,59.29
2022-09-22T12:05:27.668Z,59.29
2022-09-22T12:06:27.656Z,59.19
2022-09-22T12:07:27.658Z,59.29
2022-09-22T12:08:27.633Z,59.29
2022-09-22T12:09:29.584Z,59.29
2022-09-22T12:10:27.618Z,59.19
2022-09-22T12:11:27.601Z,59.09
2022-09-22T12:12:27.590Z,59.09
2022-09-22T12:13:27.579Z,59.09
2022-09-22T12:14:27.589Z,59.09
2022-09-22T12:15:27.560Z,59.09
2022-09-22T12:16:27.566Z,59.09
2022-09-22T12:17:27.556Z,58.99
2022-09-22T12:18:27.520Z,58.99
2022-09-22T12:19:27.511Z,59.09
2022-09-22T12:20:27.496Z,59.09
2022-09-22T12:21:27.514Z,59.09
2022-09-22T12:22:27.478Z,59.09
2022-09-22T12:23:27.472Z,58.99
2022-09-22T12:24:27.455Z,59.09
2022-09-22T12:25:45.137Z,59.09
2022-09-22T12:26:28.452Z,58.89
2022-09-22T12:27:27.424Z,58.79
2022-09-22T12:28:27.408Z,58.69
2022-09-22T12:29:27.426Z,58.79
2022-09-22T12:30:27.405Z,58.99
2022-09-22T12:31:27.380Z,58.99
2022-09-22T12:32:27.363Z,59.09
2022-09-22T12:33:27.375Z,59.09
2022-09-22T12:34:27.365Z,59.09
2022-09-22T12:35:30.293Z,59.19
2022-09-22T12:36:27.321Z,59.19
2022-09-22T12:37:27.306Z,59.19
2022-09-22T12:38:27.297Z,59.19
2022-09-22T12:39:27.307Z,59.19
2022-09-22T12:40:27.337Z,59.19
2022-09-22T12:41:27.263Z,59.19
2022-09-22T12:42:27.276Z,59.19
2022-09-22T12:43:27.244Z,59.19
2022-09-22T12:44:27.226Z,59.19
2022-09-22T12:45:27.217Z,59.19
2022-09-22T12:46:27.229Z,59.09
2022-09-22T12:47:27.199Z,58.79
2022-09-22T12:48:27.192Z,58.69
2022-09-22T12:49:27.197Z,58.59
2022-09-22T12:50:27.165Z,58.69
2022-09-22T12:51:27.175Z,58.69
2022-09-22T12:52:27.137Z,58.59
2022-09-22T12:53:27.222Z,58.59